^^
Meteo Knjazevac Station Historical Data
Daily Summary for July 14, 2021 Units:  English    Metric   Both
Daily Weekly Monthly Yearly Custom
  High: Low: Average:
Temperature: 39 °F 34.9 °F 37.1 °F
Dew Point: 38.8 °F 34.2 °F 36.7 °F
Humidity: 99% 96% 99%
Wind Speed: 2mph 0mph 0.3mph
Wind Gust: 5mph - -
Wind- - South
Pressure: 30.24 in 30.23 in -
Precipitation: 0.00 in    
Historical Graphs
 
 
Tabular Data for July 14, 2021
Time Temperature Dew Point Pressure Wind Wind Speed Wind Gust Humidity Rainfall Rate (Hourly) solar Conditions
00:00 34.9 °F 34.4 °F 30.24 in Calm   2 mph 98% 0.00 in 0 W/m2
00:10 35.1 °F 34.6 °F 30.24 in Calm     98% 0.00 in 0 W/m2
00:20 35.2 °F 34.2 °F 30.24 in Calm     96% 0.00 in 0 W/m2
00:30 35.4 °F 34.9 °F 30.24 in NE 1 mph 3 mph 98% 0.00 in 0 W/m2
00:40 35.6 °F 35.1 °F 30.24 in Calm   2 mph 98% 0.00 in 0 W/m2
00:50 35.8 °F 35.3 °F 30.24 in NW 1 mph 2 mph 98% 0.00 in 0 W/m2
01:00 35.8 °F 35.3 °F 30.24 in Calm   2 mph 98% 0.00 in 0 W/m2
01:10 36 °F 35.5 °F 30.24 in Calm   1 mph 98% 0.00 in 0 W/m2
01:20 36.1 °F 35.9 °F 30.23 in Calm   2 mph 99% 0.00 in 0 W/m2
01:30 36.3 °F 36.1 °F 30.24 in Calm   2 mph 99% 0.00 in 0 W/m2
01:40 36.5 °F 36.2 °F 30.23 in Calm   2 mph 99% 0.00 in 0 W/m2
01:50 36.7 °F 36.4 °F 30.23 in NNW 1 mph 2 mph 99% 0.00 in 0 W/m2
02:00 36.9 °F 36.6 °F 30.23 in Calm   2 mph 99% 0.00 in 0 W/m2
02:10 37.1 °F 36.8 °F 30.23 in Calm   1 mph 99% 0.00 in 0 W/m2
02:20 37.2 °F 37 °F 30.23 in Calm   2 mph 99% 0.00 in 0 W/m2
02:30 37.2 °F 37 °F 30.23 in Calm   2 mph 99% 0.00 in 0 W/m2
02:40 37.4 °F 37.1 °F 30.23 in Calm   2 mph 99% 0.00 in 0 W/m2
02:50 37.6 °F 37.3 °F 30.23 in Calm   2 mph 99% 0.00 in 0 W/m2
03:00 37.6 °F 37.4 °F 30.23 in Calm   2 mph 99% 0.00 in 0 W/m2
03:10 37.8 °F 37.5 °F 30.23 in Calm   2 mph 99% 0.00 in 0 W/m2
03:20 37.8 °F 37.5 °F 30.23 in NW 1 mph 2 mph 99% 0.00 in 0 W/m2
03:30 37.9 °F 37.7 °F 30.23 in Calm   1 mph 99% 0.00 in 0 W/m2
03:40 38.3 °F 38 °F 30.23 in Calm   5 mph 99% 0.00 in 0 W/m2
03:50 38.5 °F 38.2 °F 30.23 in North 2 mph 5 mph 99% 0.00 in 0 W/m2
04:00 38.7 °F 38.4 °F 30.23 in NW 1 mph 4 mph 99% 0.00 in 0 W/m2
04:10 38.8 °F 38.6 °F 30.23 in North 1 mph 2 mph 99% 0.00 in 0 W/m2
04:20 39 °F 38.8 °F 30.23 in Calm   2 mph 99% 0.00 in 0 W/m2
04:30 39 °F 38.8 °F 30.23 in Calm   2 mph 99% 0.00 in 0 W/m2
04:40 39 °F 38.8 °F 30.23 in Calm     99% 0.00 in 0 W/m2
Knjazevac, Serbia
Compliments of Weather Underground - 2 mb